Time;durP1;ratioP1;P1;durP2;ratioP2;P2;SDS_P1;SDS_P2;PMS_P1;PMS_P2;Temp;Humidity;BMP_temperature;BMP_pressure;BME280_temperature;BME280_humidity;BME280_pressure;Samples;Min_cycle;Max_cycle;Signal;HPM_P1;HPM_P2
2023/02/07 00:01:41;;;;;;;;;;;;;;;-0.15;50.51;101234.44;5073247;28;19912;-42
2023/02/07 00:04:07;;;;;;;;;;;;;;;-0.05;50.97;101235.50;5073382;28;19912;-42
2023/02/07 00:06:33;;;;;;;;;;;;;;;0.09;50.88;101241.66;5073045;28;19917;-42
2023/02/07 00:08:59;;;;;;;;;;;;;;;0.05;49.95;101245.41;5073258;28;19922;-42
2023/02/07 00:11:25;;;;;;;;;;;;;;;-0.16;50.51;101247.63;5073176;28;19913;-42
2023/02/07 00:13:51;;;;;;;;;;;;;;;-0.33;51.21;101246.06;5073193;28;19916;-42
2023/02/07 00:16:16;;;;;;;;;;;;;;;-0.21;51.66;101247.88;5072983;28;20001;-42
2023/02/07 00:18:42;;;;;;;;;;;;;;;-0.07;51.24;101257.50;5073046;28;19955;-42
2023/02/07 00:21:12;;;;;;;;;;;;;;;-0.03;51.52;101258.97;5072889;28;20299;-42
2023/02/07 00:23:37;;;;;;;;;;;;;;;0.08;50.81;101259.13;5072764;28;19919;-42
2023/02/07 00:26:03;;;;;;;;;;;;;;;0.02;52.02;101254.31;5073006;28;19916;-42
2023/02/07 00:28:28;;;;;;;;;;;;;;;0.08;50.91;101261.75;5072764;28;19917;-42
2023/02/07 00:31:03;;;;;;;;;;;;;;;-0.06;51.73;101265.25;5072736;28;20360;-42
2023/02/07 00:33:29;;;;;;;;;;;;;;;0.09;52.31;101273.88;5072778;28;19912;-42
2023/02/07 00:35:58;;;;;;;;;;;;;;;-0.33;53.54;101278.28;5072721;28;19919;-42
2023/02/07 00:38:23;;;;;;;;;;;;;;;-0.20;52.60;101273.97;5072753;28;20003;-41
2023/02/07 00:40:49;;;;;;;;;;;;;;;-0.04;52.47;101267.75;5072627;28;19948;-41
2023/02/07 00:43:14;;;;;;;;;;;;;;;-0.15;51.68;101270.22;5072715;28;19912;-42
2023/02/07 00:45:39;;;;;;;;;;;;;;;0.07;51.12;101272.31;5072300;28;19923;-41
2023/02/07 00:48:04;;;;;;;;;;;;;;;-0.15;51.71;101276.31;5072645;28;19916;-42
2023/02/07 00:50:30;;;;;;;;;;;;;;;-0.11;51.56;101275.16;5071526;28;19916;-41
2023/02/07 00:52:55;;;;;;;;;;;;;;;-0.02;52.22;101277.22;5072499;28;19936;-42
2023/02/07 00:55:21;;;;;;;;;;;;;;;-0.25;53.00;101272.56;5072342;28;19941;-41
2023/02/07 00:57:46;;;;;;;;;;;;;;;-0.16;52.96;101279.84;5072434;28;19912;-41
2023/02/07 01:00:12;;;;;;;;;;;;;;;-0.18;53.22;101273.88;5072475;28;19919;-41
2023/02/07 01:02:37;;;;;;;;;;;;;;;0.01;54.01;101278.78;5072170;28;19920;-41
2023/02/07 01:05:02;;;;;;;;;;;;;;;-0.14;54.15;101269.28;5072221;28;19978;-41
2023/02/07 01:07:27;;;;;;;;;;;;;;;0.08;53.83;101274.00;5071971;28;20267;-41
2023/02/07 01:09:53;;;;;;;;;;;;;;;-0.02;54.64;101273.72;5072121;28;19913;-41
2023/02/07 01:12:18;;;;;;;;;;;;;;;-0.07;54.50;101275.81;5072055;28;19934;-42
2023/02/07 01:14:43;;;;;;;;;;;;;;;-0.35;54.33;101243.53;5072265;28;19939;-42
2023/02/07 01:17:08;;;;;;;;;;;;;;;-0.15;53.91;101270.22;5072186;28;20284;-41
2023/02/07 01:19:34;;;;;;;;;;;;;;;-0.49;54.83;101262.72;5071678;28;19920;-42
2023/02/07 01:21:59;;;;;;;;;;;;;;;-0.55;55.18;101259.63;5071891;28;19975;-42
2023/02/07 01:24:24;;;;;;;;;;;;;;;-0.27;54.61;101256.97;5072006;28;19913;-41
2023/02/07 01:26:50;;;;;;;;;;;;;;;-0.01;54.12;101267.56;5071912;28;19916;-42
2023/02/07 01:29:15;;;;;;;;;;;;;;;-0.43;53.67;101257.09;5071657;28;19973;-42
2023/02/07 01:31:41;;;;;;;;;;;;;;;-0.44;54.03;101251.94;5072517;28;20356;-41
2023/02/07 01:34:06;;;;;;;;;;;;;;;-0.76;55.50;101256.53;5072522;28;19988;-42
2023/02/07 01:36:32;;;;;;;;;;;;;;;-0.41;54.50;101255.22;5072720;28;20387;-42
2023/02/07 01:38:57;;;;;;;;;;;;;;;-0.07;53.78;101255.72;5072248;28;19913;-42
2023/02/07 01:41:23;;;;;;;;;;;;;;;-0.27;53.48;101248.28;5072023;28;19927;-42
2023/02/07 01:44:00;;;;;;;;;;;;;;;-0.17;54.10;101256.38;5072039;28;19919;-42
2023/02/07 01:46:26;;;;;;;;;;;;;;;-0.23;54.64;101255.00;5072014;28;20265;-42
2023/02/07 01:48:54;;;;;;;;;;;;;;;-0.20;52.92;101255.66;5071719;28;19940;-42
2023/02/07 01:51:20;;;;;;;;;;;;;;;0.11;51.76;101250.22;5071982;28;19926;-42
2023/02/07 01:53:46;;;;;;;;;;;;;;;0.05;52.09;101255.88;5070293;28;19924;-42
2023/02/07 01:56:12;;;;;;;;;;;;;;;-0.12;52.95;101251.72;5071698;28;19919;-42
2023/02/07 01:58:38;;;;;;;;;;;;;;;-0.11;52.81;101251.63;5071739;28;19955;-42
2023/02/07 02:01:06;;;;;;;;;;;;;;;-0.44;53.00;101252.81;5073872;28;20015;-40
2023/02/07 02:03:35;;;;;;;;;;;;;;;-0.15;52.13;101247.53;5091886;28;19923;-42
2023/02/07 02:06:01;;;;;;;;;;;;;;;0.01;52.85;101250.00;5091834;28;19931;-42
2023/02/07 02:08:26;;;;;;;;;;;;;;;-0.11;52.46;101250.78;5091740;28;20290;-42
2023/02/07 02:11:11;;;;;;;;;;;;;;;-0.25;52.75;101254.25;5091861;28;19912;-42
2023/02/07 02:13:43;;;;;;;;;;;;;;;-0.20;53.03;101242.56;5091792;28;20002;-41
2023/02/07 02:16:12;;;;;;;;;;;;;;;-0.46;53.71;101241.59;5091818;28;20364;-41
2023/02/07 02:18:43;;;;;;;;;;;;;;;-0.29;53.36;101247.53;5091501;28;19955;-41
2023/02/07 02:21:14;;;;;;;;;;;;;;;-0.32;53.44;101258.22;5091509;28;19924;-41
2023/02/07 02:23:42;;;;;;;;;;;;;;;-0.30;53.17;101258.97;5091742;28;19912;-42
2023/02/07 02:26:13;;;;;;;;;;;;;;;-0.20;52.85;101263.50;5091607;28;19912;-42
2023/02/07 02:28:38;;;;;;;;;;;;;;;-0.77;55.41;101242.63;5091531;28;19916;-42
2023/02/07 02:31:03;;;;;;;;;;;;;;;-0.59;55.00;101259.00;5091613;28;20029;-43
2023/02/07 02:33:41;;;;;;;;;;;;;;;-0.62;54.51;101251.31;5091434;28;19918;-42
2023/02/07 02:36:07;;;;;;;;;;;;;;;-0.81;55.17;101259.44;5091146;28;20003;-43
2023/02/07 02:38:35;;;;;;;;;;;;;;;-0.84;55.61;101257.88;5091140;28;19948;-42
2023/02/07 02:41:03;;;;;;;;;;;;;;;-0.72;54.91;101255.41;5091488;28;20404;-43
2023/02/07 02:43:34;;;;;;;;;;;;;;;-0.55;54.21;101257.88;5091428;28;20002;-42
2023/02/07 02:46:29;;;;;;;;;;;;;;;-0.45;54.45;101250.28;5091295;28;20375;-42
2023/02/07 02:48:55;;;;;;;;;;;;;;;-0.52;54.50;101251.59;5086022;28;20376;-43
2023/02/07 02:51:20;;;;;;;;;;;;;;;-0.71;55.85;101255.31;5089784;28;20014;-43
2023/02/07 02:53:55;;;;;;;;;;;;;;;-0.68;56.33;101256.94;5091021;28;19959;-43
2023/02/07 02:56:39;;;;;;;;;;;;;;;-0.84;55.79;101257.88;5091233;28;20294;-42
2023/02/07 02:59:27;;;;;;;;;;;;;;;-0.80;55.30;101254.13;5089792;28;19919;-42
2023/02/07 03:01:58;;;;;;;;;;;;;;;-0.43;55.27;101256.25;5090739;28;19912;-42
2023/02/07 03:04:41;;;;;;;;;;;;;;;-0.52;55.96;101252.41;5091059;28;19955;-42
2023/02/07 03:07:18;;;;;;;;;;;;;;;-0.76;56.43;101254.78;5090958;28;19934;-42
2023/02/07 03:09:43;;;;;;;;;;;;;;;-0.85;56.63;101248.34;5091027;28;19994;-42
2023/02/07 03:12:20;;;;;;;;;;;;;;;-0.68;56.12;101257.78;5090735;28;19916;-42
2023/02/07 03:14:54;;;;;;;;;;;;;;;-0.74;55.33;101252.06;5093658;28;19912;-42
2023/02/07 03:17:24;;;;;;;;;;;;;;;-0.77;56.58;101255.72;5095427;28;19912;-42
2023/02/07 03:19:54;;;;;;;;;;;;;;;-0.89;57.31;101254.69;5095372;28;19966;-41
2023/02/07 03:22:21;;;;;;;;;;;;;;;-0.86;57.46;101264.94;5095361;28;19965;-41
2023/02/07 03:24:50;;;;;;;;;;;;;;;-1.03;58.00;101270.34;5095432;28;19912;-41
2023/02/07 03:27:17;;;;;;;;;;;;;;;-0.95;57.45;101265.50;5095141;28;20024;-41
2023/02/07 03:29:44;;;;;;;;;;;;;;;-0.85;57.44;101266.63;5094751;28;19919;-42
2023/02/07 03:32:11;;;;;;;;;;;;;;;-0.71;56.87;101271.00;5094955;28;20027;-41
2023/02/07 03:34:49;;;;;;;;;;;;;;;-0.63;57.06;101271.41;5095154;28;19980;-41
2023/02/07 03:37:19;;;;;;;;;;;;;;;-0.70;56.81;101274.50;5095427;28;19912;-41
2023/02/07 03:39:44;;;;;;;;;;;;;;;-0.60;57.05;101275.59;5095232;28;19916;-41
2023/02/07 03:42:29;;;;;;;;;;;;;;;-0.96;57.60;101270.81;5094319;28;19912;-41
2023/02/07 03:44:56;;;;;;;;;;;;;;;-0.67;58.35;101267.28;5094418;28;19919;-42
2023/02/07 03:47:21;;;;;;;;;;;;;;;-0.55;57.55;101268.31;5095052;28;19939;-41
2023/02/07 03:49:47;;;;;;;;;;;;;;;-0.97;57.51;101272.59;5094568;28;20346;-42
2023/02/07 03:52:12;;;;;;;;;;;;;;;-0.72;57.17;101269.34;5094426;28;20031;-42
2023/02/07 03:54:38;;;;;;;;;;;;;;;-0.44;56.41;101273.75;5094261;28;19912;-41
2023/02/07 03:57:03;;;;;;;;;;;;;;;-0.32;56.10;101268.69;5094551;28;19951;-42
2023/02/07 03:59:29;;;;;;;;;;;;;;;-0.45;56.49;101264.19;5093678;28;19998;-42
2023/02/07 04:01:54;;;;;;;;;;;;;;;-0.70;56.60;101264.88;5094105;28;19999;-42
2023/02/07 04:04:19;;;;;;;;;;;;;;;-0.55;56.06;101263.09;5094206;28;19912;-41
2023/02/07 04:06:45;;;;;;;;;;;;;;;-0.41;55.69;101276.16;5094132;28;20118;-41
2023/02/07 04:09:10;;;;;;;;;;;;;;;-0.23;54.92;101273.31;5094028;28;20360;-41
2023/02/07 04:11:35;;;;;;;;;;;;;;;-0.22;54.38;101275.00;5093715;28;19993;-42
2023/02/07 04:14:00;;;;;;;;;;;;;;;0.11;54.80;101276.41;5093600;28;20278;-42
2023/02/07 04:16:26;;;;;;;;;;;;;;;0.02;55.02;101274.38;5093928;28;19927;-42
2023/02/07 04:18:51;;;;;;;;;;;;;;;-0.25;55.03;101283.03;5093518;28;19919;-42
2023/02/07 04:21:16;;;;;;;;;;;;;;;-0.28;55.35;101283.25;5093338;28;20487;-42
2023/02/07 04:23:42;;;;;;;;;;;;;;;-0.38;55.39;101279.50;5093706;28;19941;-42
2023/02/07 04:26:07;;;;;;;;;;;;;;;-0.72;56.49;101276.34;5093836;28;19912;-42
2023/02/07 04:28:32;;;;;;;;;;;;;;;-0.57;55.79;101283.28;5104661;28;19919;-41
2023/02/07 04:30:58;;;;;;;;;;;;;;;-0.48;54.68;101285.28;5080577;28;20398;-41
2023/02/07 04:33:23;;;;;;;;;;;;;;;-0.41;55.57;101293.63;5092065;28;19927;-41
2023/02/07 04:35:59;;;;;;;;;;;;;;;-0.42;56.44;101286.69;5093393;28;19912;-41
2023/02/07 04:38:25;;;;;;;;;;;;;;;-0.30;56.79;101291.19;5078766;28;20296;-41
2023/02/07 04:40:50;;;;;;;;;;;;;;;-0.35;57.18;101292.41;5072604;28;19966;-41
2023/02/07 04:43:15;;;;;;;;;;;;;;;-0.22;54.95;101290.72;5073549;28;19916;-42
2023/02/07 04:45:41;;;;;;;;;;;;;;;-0.04;54.57;101301.78;5073223;28;20001;-42
2023/02/07 04:48:06;;;;;;;;;;;;;;;-0.20;55.28;101296.69;5073158;28;19916;-42
2023/02/07 04:50:31;;;;;;;;;;;;;;;-0.29;55.10;101297.25;5072859;28;20576;-42
2023/02/07 04:52:57;;;;;;;;;;;;;;;-0.08;55.30;101306.38;5071934;28;19951;-42
2023/02/07 04:55:22;;;;;;;;;;;;;;;-0.08;55.86;101300.31;5071807;28;20314;-42
2023/02/07 04:57:47;;;;;;;;;;;;;;;0.05;56.74;101303.00;5071855;28;19917;-43
2023/02/07 05:00:13;;;;;;;;;;;;;;;0.09;56.38;101310.53;5086175;28;20376;-42
2023/02/07 05:02:39;;;;;;;;;;;;;;;0.03;56.20;101310.94;5093470;28;19916;-42
2023/02/07 05:05:04;;;;;;;;;;;;;;;-0.12;56.67;101315.34;5091936;28;20031;-42
2023/02/07 05:07:30;;;;;;;;;;;;;;;-0.02;56.85;101313.00;5103864;28;19992;-42
2023/02/07 05:09:55;;;;;;;;;;;;;;;0.14;56.22;101324.19;5101883;28;19918;-42
2023/02/07 05:12:20;;;;;;;;;;;;;;;-0.11;56.11;101322.28;5091964;28;19924;-42
2023/02/07 05:14:46;;;;;;;;;;;;;;;-0.23;55.81;101325.66;5092354;28;19916;-42
2023/02/07 05:17:11;;;;;;;;;;;;;;;-0.27;58.65;101329.38;5091976;28;19912;-41
2023/02/07 05:19:36;;;;;;;;;;;;;;;-0.19;56.76;101332.41;5081042;28;20351;-41
2023/02/07 05:22:01;;;;;;;;;;;;;;;-0.42;56.80;101326.78;5082207;28;20046;-42
2023/02/07 05:24:27;;;;;;;;;;;;;;;-0.16;56.96;101331.34;5080567;28;19912;-42
2023/02/07 05:26:52;;;;;;;;;;;;;;;-0.17;55.79;101330.53;5083268;28;19980;-42
2023/02/07 05:29:18;;;;;;;;;;;;;;;-0.02;55.45;101329.56;5087781;28;19916;-42
2023/02/07 05:34:27;;;;;;;;;;;;;;;0.00;55.72;101329.47;5085327;28;19931;-42
2023/02/07 05:36:52;;;;;;;;;;;;;;;-0.13;55.91;101329.38;5086808;28;19924;-41
2023/02/07 05:39:17;;;;;;;;;;;;;;;-0.37;56.40;101329.13;5082260;28;20041;-42
2023/02/07 05:41:42;;;;;;;;;;;;;;;-0.49;57.41;101340.34;5082338;28;20042;-42
2023/02/07 05:44:08;;;;;;;;;;;;;;;-0.24;57.33;101339.69;5081692;28;19913;-42
2023/02/07 05:46:33;;;;;;;;;;;;;;;-0.08;59.83;101350.03;5080780;28;20003;-42
2023/02/07 05:48:58;;;;;;;;;;;;;;;0.52;58.86;101348.88;5079898;28;19916;-41
2023/02/07 05:51:23;;;;;;;;;;;;;;;0.42;54.69;101348.63;5081277;28;19955;-42
2023/02/07 05:53:49;;;;;;;;;;;;;;;0.43;53.22;101346.84;5079833;28;19913;-42
2023/02/07 05:56:14;;;;;;;;;;;;;;;-0.08;54.62;101350.84;5080596;28;20409;-42
2023/02/07 05:58:39;;;;;;;;;;;;;;;-0.11;55.14;101358.09;5080497;28;19912;-41
2023/02/07 06:01:05;;;;;;;;;;;;;;;-0.01;54.48;101361.81;5079249;28;19916;-36
2023/02/07 06:03:30;;;;;;;;;;;;;;;1.92;77.83;101363.91;5076258;28;19970;-36
2023/02/07 06:05:55;;;;;;;;;;;;;;;1.49;51.93;101368.66;5070882;28;19954;-36
2023/02/07 06:08:21;;;;;;;;;;;;;;;1.32;51.46;101369.81;5070993;28;19978;-35
2023/02/07 06:10:49;;;;;;;;;;;;;;;1.54;62.08;101375.28;5071095;28;19920;-36
2023/02/07 06:13:14;;;;;;;;;;;;;;;3.23;61.27;101366.69;5070575;28;19977;-36
2023/02/07 06:15:39;;;;;;;;;;;;;;;4.64;58.27;101368.78;5077253;28;19919;-36
2023/02/07 06:18:05;;;;;;;;;;;;;;;4.42;52.86;101367.06;5082432;28;20458;-36
2023/02/07 06:20:30;;;;;;;;;;;;;;;4.35;45.55;101370.31;5077702;28;19920;-35
2023/02/07 06:22:55;;;;;;;;;;;;;;;3.78;45.16;101361.63;5091031;28;19920;-35
2023/02/07 06:25:20;;;;;;;;;;;;;;;2.50;48.37;101372.03;5091024;28;19927;-35
2023/02/07 06:27:46;;;;;;;;;;;;;;;2.28;50.38;101375.34;5090944;28;19927;-36
2023/02/07 06:30:11;;;;;;;;;;;;;;;1.34;51.12;101376.63;5091202;28;19938;-37
2023/02/07 06:32:37;;;;;;;;;;;;;;;1.34;51.14;101376.63;5091043;28;19923;-36
2023/02/07 06:35:03;;;;;;;;;;;;;;;1.01;52.11;101373.63;5090887;28;19928;-34
2023/02/07 06:37:29;;;;;;;;;;;;;;;1.28;52.46;101373.59;5090881;28;19945;-36
2023/02/07 06:39:54;;;;;;;;;;;;;;;1.04;50.17;101376.91;5091367;28;20349;-36
2023/02/07 06:42:20;;;;;;;;;;;;;;;0.90;50.21;101379.59;5090403;28;19919;-36
2023/02/07 06:44:45;;;;;;;;;;;;;;;0.76;50.05;101390.97;5090679;28;19963;-36
2023/02/07 06:47:11;;;;;;;;;;;;;;;0.38;51.13;101387.28;5090818;28;19916;-36
2023/02/07 06:49:36;;;;;;;;;;;;;;;0.47;51.59;101382.38;5089642;28;19973;-36
2023/02/07 06:52:01;;;;;;;;;;;;;;;0.55;51.23;101387.94;5090260;28;19977;-36
2023/02/07 06:54:27;;;;;;;;;;;;;;;0.55;51.57;101390.56;5090695;28;19919;-36
2023/02/07 06:56:52;;;;;;;;;;;;;;;0.48;51.45;101395.38;5090886;28;20045;-35
2023/02/07 06:59:17;;;;;;;;;;;;;;;0.57;52.47;101396.56;5089786;28;19999;-37
2023/02/07 07:01:42;;;;;;;;;;;;;;;0.83;51.39;101399.28;5089563;28;20361;-35
2023/02/07 07:04:08;;;;;;;;;;;;;;;0.88;51.73;101397.22;5089936;28;19912;-35
2023/02/07 07:06:33;;;;;;;;;;;;;;;0.95;52.27;101391.47;5087766;28;19985;-37
2023/02/07 07:08:58;;;;;;;;;;;;;;;0.87;51.60;101396.34;5087953;28;19920;-37
2023/02/07 07:11:24;;;;;;;;;;;;;;;1.20;51.60;101386.38;5089602;28;19939;-35
2023/02/07 07:13:49;;;;;;;;;;;;;;;1.05;51.70;101385.59;5089836;28;19912;-36
2023/02/07 07:16:14;;;;;;;;;;;;;;;1.36;50.72;101385.22;5089419;28;20028;-36
2023/02/07 07:18:40;;;;;;;;;;;;;;;1.06;51.74;101382.88;5088727;28;19918;-37
2023/02/07 07:21:05;;;;;;;;;;;;;;;0.57;52.80;101378.22;5089602;28;19924;-35
2023/02/07 07:23:31;;;;;;;;;;;;;;;0.28;53.10;101383.53;5089472;28;19942;-35
2023/02/07 07:25:56;;;;;;;;;;;;;;;0.62;52.01;101381.38;5090046;28;20094;-35
2023/02/07 07:28:21;;;;;;;;;;;;;;;1.14;50.87;101385.00;5090257;28;19920;-36
2023/02/07 07:30:47;;;;;;;;;;;;;;;1.24;50.44;101386.06;5090188;28;20011;-36
2023/02/07 07:33:12;;;;;;;;;;;;;;;1.61;51.07;101377.47;5090520;28;20034;-35
2023/02/07 07:35:37;;;;;;;;;;;;;;;1.79;51.31;101372.72;5090290;28;20383;-36
2023/02/07 07:38:02;;;;;;;;;;;;;;;2.11;49.57;101375.72;5090166;28;19912;-37
2023/02/07 07:40:28;;;;;;;;;;;;;;;2.68;47.80;101377.72;5090382;28;19920;-36
2023/02/07 07:42:53;;;;;;;;;;;;;;;2.56;47.68;101372.56;5090282;28;19916;-36
2023/02/07 07:45:19;;;;;;;;;;;;;;;2.31;47.34;101376.94;5090602;28;19989;-35
2023/02/07 07:47:44;;;;;;;;;;;;;;;2.29;46.60;101377.06;5090335;28;19912;-35
2023/02/07 07:50:09;;;;;;;;;;;;;;;2.27;47.25;101378.97;5090422;28;19919;-36
2023/02/07 07:52:35;;;;;;;;;;;;;;;2.69;46.41;101379.44;5090601;28;20268;-37
2023/02/07 07:55:00;;;;;;;;;;;;;;;2.96;44.98;101380.97;5089986;28;20398;-36
2023/02/07 07:57:27;;;;;;;;;;;;;;;3.18;45.31;101374.09;5090159;28;19912;-35
2023/02/07 07:59:52;;;;;;;;;;;;;;;3.67;44.66;101380.88;5090685;28;19919;-36
2023/02/07 08:02:18;;;;;;;;;;;;;;;3.35;44.68;101376.31;5093778;28;19916;-36
2023/02/07 08:04:43;;;;;;;;;;;;;;;3.38;45.69;101381.31;5093563;28;20002;-36
2023/02/07 08:07:08;;;;;;;;;;;;;;;3.64;45.08;101383.78;5093193;28;19923;-37
2023/02/07 08:09:33;;;;;;;;;;;;;;;3.35;43.78;101378.09;5093231;28;19946;-36
2023/02/07 08:11:59;;;;;;;;;;;;;;;3.37;45.99;101369.13;5093747;28;19912;-37
2023/02/07 08:14:24;;;;;;;;;;;;;;;3.33;44.14;101372.94;5093706;28;19920;-37
2023/02/07 08:16:49;;;;;;;;;;;;;;;3.07;44.69;101373.13;5093832;28;19912;-37
2023/02/07 08:19:14;;;;;;;;;;;;;;;3.20;44.45;101366.91;5093518;28;19963;-35
2023/02/07 08:21:40;;;;;;;;;;;;;;;3.16;45.12;101371.59;5093015;28;19924;-35
2023/02/07 08:24:05;;;;;;;;;;;;;;;4.14;43.50;101370.22;5093180;28;19916;-37
2023/02/07 08:26:30;;;;;;;;;;;;;;;4.92;41.44;101369.16;5093117;28;19920;-36
2023/02/07 08:28:56;;;;;;;;;;;;;;;5.05;40.72;101367.19;5093140;28;20049;-36
2023/02/07 08:31:21;;;;;;;;;;;;;;;5.13;40.51;101355.97;5092971;28;19916;-36
2023/02/07 08:33:46;;;;;;;;;;;;;;;5.21;40.15;101369.38;5093186;28;19913;-36
2023/02/07 08:36:12;;;;;;;;;;;;;;;5.27;39.85;101358.31;5092797;28;19918;-35
2023/02/07 08:38:37;;;;;;;;;;;;;;;5.34;39.99;101355.97;5092936;28;19919;-35
2023/02/07 08:41:03;;;;;;;;;;;;;;;5.47;38.63;101353.97;5093100;28;19951;-35
2023/02/07 08:43:28;;;;;;;;;;;;;;;5.97;37.55;101350.59;5092739;28;19912;-35
2023/02/07 08:45:53;;;;;;;;;;;;;;;6.05;37.52;101353.41;5093289;28;19911;-35
2023/02/07 08:48:19;;;;;;;;;;;;;;;6.09;36.10;101353.13;5093087;28;19974;-36
2023/02/07 08:50:44;;;;;;;;;;;;;;;5.98;35.44;101354.09;5092858;28;19912;-35
2023/02/07 08:53:09;;;;;;;;;;;;;;;6.43;35.08;101343.03;5093286;28;19919;-37
2023/02/07 08:55:35;;;;;;;;;;;;;;;6.54;34.89;101339.44;5092774;28;19912;-35
2023/02/07 08:58:00;;;;;;;;;;;;;;;5.93;35.05;101335.13;5091773;28;19951;-36
2023/02/07 09:00:25;;;;;;;;;;;;;;;6.21;34.68;101337.03;5075713;28;19916;-36
2023/02/07 09:02:51;;;;;;;;;;;;;;;6.50;34.75;101343.34;5072735;28;19973;-35
2023/02/07 09:05:16;;;;;;;;;;;;;;;6.25;34.42;101337.59;5072432;28;19938;-36
2023/02/07 09:07:41;;;;;;;;;;;;;;;6.34;33.39;101338.56;5072013;28;19935;-36
2023/02/07 09:10:07;;;;;;;;;;;;;;;6.35;33.79;101343.72;5071708;28;19912;-36
2023/02/07 09:12:33;;;;;;;;;;;;;;;6.71;33.45;101337.91;5071203;28;20342;-36
2023/02/07 09:14:59;;;;;;;;;;;;;;;6.58;32.99;101339.00;5072312;28;19913;-36
2023/02/07 09:17:24;;;;;;;;;;;;;;;6.61;32.82;101333.47;5072311;28;20356;-36
2023/02/07 09:19:50;;;;;;;;;;;;;;;6.45;32.58;101341.09;5072409;28;20338;-36
2023/02/07 09:22:15;;;;;;;;;;;;;;;6.33;32.52;101332.44;5072340;28;19923;-36
2023/02/07 09:24:40;;;;;;;;;;;;;;;6.79;32.22;101336.22;5072141;28;20369;-36
2023/02/07 09:27:06;;;;;;;;;;;;;;;6.48;30.70;101326.78;5072469;28;19970;-36
2023/02/07 09:29:31;;;;;;;;;;;;;;;5.76;30.77;101326.84;5071746;28;19952;-37
2023/02/07 09:31:56;;;;;;;;;;;;;;;5.97;31.06;101324.16;5072218;28;19913;-37
2023/02/07 09:34:22;;;;;;;;;;;;;;;6.13;32.02;101323.66;5092457;28;19919;-35
2023/02/07 09:36:48;;;;;;;;;;;;;;;5.40;32.24;101322.94;5089863;28;20364;-36
2023/02/07 09:39:14;;;;;;;;;;;;;;;5.99;32.01;101314.28;5083767;28;20321;-36
2023/02/07 09:41:46;;;;;;;;;;;;;;;6.01;32.09;101314.16;5088419;28;19919;-36
2023/02/07 09:44:24;;;;;;;;;;;;;;;6.35;30.83;101314.63;5089707;28;19912;-38
2023/02/07 09:46:52;;;;;;;;;;;;;;;6.29;29.92;101303.78;5101925;28;19919;-35
2023/02/07 09:49:37;;;;;;;;;;;;;;;6.53;30.20;101300.72;5086364;28;19920;-35
2023/02/07 09:52:04;;;;;;;;;;;;;;;6.54;30.50;101295.31;5086261;28;19976;-35
2023/02/07 09:54:34;;;;;;;;;;;;;;;6.13;31.53;101297.22;5084997;28;19912;-37
2023/02/07 09:57:02;;;;;;;;;;;;;;;6.25;30.40;101282.91;5090068;28;20585;-36
2023/02/07 09:59:46;;;;;;;;;;;;;;;6.76;29.77;101285.41;5084094;28;19919;-36
2023/02/07 10:02:33;;;;;;;;;;;;;;;6.53;30.00;101283.06;5086034;28;19923;-36
2023/02/07 10:05:05;;;;;;;;;;;;;;;6.06;29.97;101270.50;5078410;28;20288;-34
2023/02/07 10:07:31;;;;;;;;;;;;;;;6.37;29.65;101277.50;5082456;28;19916;-37
2023/02/07 10:09:56;;;;;;;;;;;;;;;6.05;30.76;101268.84;5080741;28;19997;-35
2023/02/07 10:12:29;;;;;;;;;;;;;;;6.39;30.95;101265.78;5086465;28;19963;-36
2023/02/07 10:15:15;;;;;;;;;;;;;;;6.13;30.82;101267.28;5090849;28;20319;-35
2023/02/07 10:17:49;;;;;;;;;;;;;;;5.93;30.95;101258.50;5091439;28;19941;-41
2023/02/07 10:20:18;;;;;;;;;;;;;;;6.51;30.86;101258.56;5090338;28;19920;-41
2023/02/07 10:22:46;;;;;;;;;;;;;;;6.33;30.54;101261.06;5090799;28;19916;-41
2023/02/07 10:25:17;;;;;;;;;;;;;;;6.26;30.10;101252.88;5090925;28;20148;-41
2023/02/07 10:27:56;;;;;;;;;;;;;;;6.08;29.89;101249.22;5090623;28;19973;-42
2023/02/07 10:30:30;;;;;;;;;;;;;;;6.63;30.04;101256.59;5090890;28;19926;-43
2023/02/07 10:33:01;;;;;;;;;;;;;;;6.27;30.62;101251.03;5091451;28;20363;-41
2023/02/07 10:35:32;;;;;;;;;;;;;;;5.80;31.16;101246.34;5091083;28;19916;-41
2023/02/07 10:37:59;;;;;;;;;;;;;;;5.63;31.34;101242.53;5089939;28;19954;-42
2023/02/07 10:40:47;;;;;;;;;;;;;;;5.77;31.56;101246.63;5089231;28;20379;-41
2023/02/07 10:43:32;;;;;;;;;;;;;;;5.88;31.31;101235.94;5089079;28;19971;-41
2023/02/07 10:46:05;;;;;;;;;;;;;;;5.42;31.37;101245.25;5088731;28;19912;-42
2023/02/07 10:48:31;;;;;;;;;;;;;;;5.56;30.23;101233.50;5089298;28;19976;-42
2023/02/07 10:50:58;;;;;;;;;;;;;;;5.64;30.24;101227.56;5090151;28;19978;-41
2023/02/07 10:53:47;;;;;;;;;;;;;;;6.26;28.64;101242.28;5091349;28;19924;-42
2023/02/07 10:56:39;;;;;;;;;;;;;;;6.35;30.04;101234.47;5090944;28;20361;-43
2023/02/07 10:59:05;;;;;;;;;;;;;;;6.54;28.23;101220.41;5090471;28;19912;-42
2023/02/07 11:01:31;;;;;;;;;;;;;;;6.11;27.83;101217.25;5090660;28;19919;-41
2023/02/07 11:03:57;;;;;;;;;;;;;;;6.17;27.00;101221.97;5090845;28;19961;-41
2023/02/07 11:06:25;;;;;;;;;;;;;;;6.01;27.85;101226.94;5090688;28;20072;-41
2023/02/07 11:09:09;;;;;;;;;;;;;;;5.57;28.13;101219.31;5090604;28;19916;-41
2023/02/07 11:11:37;;;;;;;;;;;;;;;5.87;28.07;101214.94;5090118;28;19919;-41
2023/02/07 11:14:06;;;;;;;;;;;;;;;5.79;28.41;101220.09;5090186;28;19943;-42
2023/02/07 11:16:31;;;;;;;;;;;;;;;5.93;28.04;101221.50;5090364;28;20037;-42
2023/02/07 11:18:58;;;;;;;;;;;;;;;6.13;27.48;101220.56;5090148;28;20076;-42
2023/02/07 11:21:32;;;;;;;;;;;;;;;5.60;28.29;101210.31;5090041;28;19983;-42
2023/02/07 11:24:11;;;;;;;;;;;;;;;5.71;28.31;101214.63;5090517;28;20329;-42
2023/02/07 11:26:39;;;;;;;;;;;;;;;5.94;28.13;101205.50;5090542;28;19923;-42
2023/02/07 11:29:15;;;;;;;;;;;;;;;6.56;27.39;101200.78;5090463;28;19916;-41
2023/02/07 11:31:42;;;;;;;;;;;;;;;5.61;28.50;101210.16;5090347;28;20388;-41
2023/02/07 11:34:26;;;;;;;;;;;;;;;5.83;28.32;101206.47;5090648;28;19935;-43
2023/02/07 11:36:51;;;;;;;;;;;;;;;5.98;28.65;101192.88;5094280;28;19926;-42
2023/02/07 11:39:21;;;;;;;;;;;;;;;5.77;28.20;101199.09;5094552;28;19912;-41
2023/02/07 11:41:54;;;;;;;;;;;;;;;5.57;28.65;101192.09;5094021;28;19923;-42
2023/02/07 11:44:22;;;;;;;;;;;;;;;5.88;27.98;101191.03;5093173;28;19912;-42
2023/02/07 11:46:48;;;;;;;;;;;;;;;5.59;28.74;101190.13;5094200;28;19919;-41
2023/02/07 11:49:23;;;;;;;;;;;;;;;5.20;29.61;101184.75;5093878;28;19989;-41
2023/02/07 11:51:50;;;;;;;;;;;;;;;5.31;29.58;101186.44;5094030;28;19919;-41
2023/02/07 11:54:15;;;;;;;;;;;;;;;5.48;28.56;101180.50;5094284;28;19919;-42
2023/02/07 11:56:44;;;;;;;;;;;;;;;6.21;27.59;101173.13;5094027;28;19916;-41
2023/02/07 11:59:18;;;;;;;;;;;;;;;6.61;27.51;101172.09;5093916;28;19912;-42
2023/02/07 12:01:47;;;;;;;;;;;;;;;6.68;27.22;101174.16;5093962;28;19912;-42
2023/02/07 12:04:17;;;;;;;;;;;;;;;6.31;27.49;101165.19;5093862;28;19947;-40
2023/02/07 12:06:45;;;;;;;;;;;;;;;6.59;27.29;101168.75;5093507;28;19947;-42
2023/02/07 12:09:20;;;;;;;;;;;;;;;6.72;28.11;101157.03;5093574;28;20376;-42
2023/02/07 12:11:46;;;;;;;;;;;;;;;6.99;27.28;101157.06;5093814;28;19912;-43
2023/02/07 12:14:18;;;;;;;;;;;;;;;6.63;27.28;101156.91;5094003;28;19916;-42
2023/02/07 12:16:47;;;;;;;;;;;;;;;6.16;28.00;101156.84;5093325;28;19927;-41
2023/02/07 12:19:19;;;;;;;;;;;;;;;6.00;28.14;101156.59;5093030;28;20358;-42
2023/02/07 12:21:58;;;;;;;;;;;;;;;5.81;28.22;101150.28;5092860;28;19925;-42
2023/02/07 12:24:27;;;;;;;;;;;;;;;5.92;28.14;101145.81;5093769;28;20003;-41
2023/02/07 12:26:53;;;;;;;;;;;;;;;5.69;28.60;101143.44;5093516;28;19956;-42
2023/02/07 12:29:30;;;;;;;;;;;;;;;5.67;29.00;101148.03;5093259;28;20314;-42
2023/02/07 12:31:55;;;;;;;;;;;;;;;5.17;29.66;101146.25;5093115;28;20233;-42
2023/02/07 12:34:20;;;;;;;;;;;;;;;5.35;29.59;101145.59;5093628;28;20112;-42
2023/02/07 12:36:50;;;;;;;;;;;;;;;4.74;29.89;101149.97;5093387;28;20388;-42
2023/02/07 12:39:47;;;;;;;;;;;;;;;5.12;29.58;101151.09;5092968;28;19919;-42
2023/02/07 12:42:45;;;;;;;;;;;;;;;5.17;29.76;101148.06;5089758;28;19912;-41
2023/02/07 12:45:37;;;;;;;;;;;;;;;5.58;29.66;101148.84;5092995;28;19908;-41
2023/02/07 12:48:16;;;;;;;;;;;;;;;5.27;30.22;101151.56;5091989;28;19916;-41
2023/02/07 12:50:41;;;;;;;;;;;;;;;5.48;29.58;101154.97;5092450;28;19912;-41